Weather observations for the past three days for
Ardmore, Ardmore Downtown Executive Airport
Imperial (Metric)
Date Time (cdt) Wind (mph) Vis. (mi.) Weather Sky Cond. Temperature (ºF) Relative Humidity Wind Chill (°F) Heat Index (°F) Pressure Precipitation (in)
Air Dwpt 6 hour altimeter (in) sea level (mb) 1 hr 3 hr 6 hr
Max. Min.
06 07:35 NE 13 G 21 10.00 Mostly Cloudy BKN037 51.6 41.9 70% 29.95 0.0
06 07:15 N 13 G 20 10.00 Overcast SCT025 OVC035 51.6 42.3 71% 29.94 0.0
06 06:55 N 13 G 20 10.00 Overcast BKN025 OVC035 51.4 42.6 52.5 50.5 72% 29.94 0.0
06 06:35 N 12 G 18 10.00 Overcast BKN021 OVC028 51.3 42.8 73% 29.95 0.0
06 06:15 N 10 G 17 10.00 Overcast OVC021 51.1 42.8 73% 29.93 0.0
06 05:55 N 12 G 20 10.00 Overcast OVC019 51.1 43.2 74% 29.94 0.0
06 05:35 N 12 G 18 10.00 Overcast OVC019 50.9 43.7 77% 29.92 0.0
06 05:15 N 8 10.00 Overcast OVC017 50.9 44.2 78% 29.91 0.0
06 04:55 N 9 10.00 Overcast OVC017 50.9 44.4 79% 29.91 0.0
06 04:35 N 10 10.00 Overcast OVC017 50.9 44.2 78% 29.9 0.0
06 04:15 N 12 G 17 10.00 Overcast OVC017 50.7 44.2 79% 29.89 0.0
06 03:55 N 10 10.00 Overcast OVC017 50.5 44.2 79% 29.89 0.0
06 03:35 NE 10 10.00 Overcast OVC017 50.7 44.4 79% 29.88 0.0
06 03:15 NE 14 G 21 10.00 Overcast OVC017 50.7 44.2 79% 29.87 0.0
06 02:55 N 12 G 17 10.00 Overcast OVC019 50.9 44.1 78% 29.87 0.0
06 02:35 N 8 10.00 Overcast BKN019 OVC046 51.3 44.2 77% 29.88 0.0
06 02:15 N 8 10.00 Overcast SCT019 OVC048 51.6 44.1 76% 29.87 0.0
06 01:55 N 9 10.00 Mostly Cloudy BKN048 51.6 43.9 75% 29.86 0.0
06 01:35 NE 10 10.00 Mostly Cloudy BKN050 51.6 43.7 75% 29.85 0.0
06 01:15 NE 10 10.00 Overcast OVC050 52.2 43.7 73% 29.86 0.0
06 00:55 NE 12 G 18 10.00 Overcast OVC060 52.5 43.7 60.1 52.5 72% 29.86 0.0
06 00:35 N 9 10.00 Overcast OVC060 52.9 44.1 72% 29.87 0.0
06 00:15 N 8 10.00 Overcast SCT022 OVC060 53.2 44.4 72% 29.87 0.0
05 23:55 N 9 10.00 Overcast SCT022 OVC060 53.2 44.2 72% 29.87 0.0
05 23:35 N 10 G 20 10.00 Overcast BKN022 OVC060 53.6 44.6 72% 29.86 0.0
05 23:15 N 10 10.00 Overcast OVC020 53.8 45.5 74% 29.87 0.0
05 22:55 N 10 10.00 Overcast OVC020 54 46 75% 29.87 0.0
05 22:35 N 10 10.00 Mostly Cloudy BKN020 54.1 46.2 75% 29.86 0.0
05 22:15 N 14 G 21 10.00 Partly Cloudy SCT020 54.1 46.4 75% 29.84 0.0
05 21:55 N 14 G 18 10.00 Mostly Cloudy BKN019 54.5 46.6 75% 29.82 0.0
05 21:35 N 13 10.00 Overcast OVC019 55.2 47.7 76% 29.82 0.0
05 21:15 N 10 10.00 Overcast OVC019 55.9 48.6 76% 29.8 0.0
05 20:55 N 12 G 18 10.00 Overcast OVC017 56.5 49.1 76% 29.79 0.0
05 20:35 N 10 G 16 10.00 Overcast OVC015 56.7 50.2 79% 29.79 0.0
05 20:15 N 10 10.00 Overcast OVC015 57 51.1 81% 29.78 0.0
05 19:55 N 10 G 16 10.00 Overcast OVC015 57.6 51.4 80% 29.77 0.0
05 19:35 N 9 G 18 10.00 Overcast OVC015 58.1 51.8 80% 29.77 0.0
05 19:15 N 13 10.00 Overcast OVC017 59.2 52.5 79% 29.76 0.0
05 18:55 N 9 G 17 10.00 Overcast OVC019 60.3 53.2 84.9 60.1 78% 29.76 0.0
05 18:35 N 13 G 20 10.00 Overcast OVC019 61.3 53.6 76% 29.75 0.0
05 18:15 NW 10 G 17 10.00 Mostly Cloudy BKN021 63.3 54.7 74% 29.75 0.0
05 17:55 NW 13 G 18 10.00 Fair CLR 65.5 55.9 71% 29.74 0.0
05 17:35 NW 10 G 17 10.00 Fair CLR 66.9 56.8 70% 29.73 0.0
05 17:15 NW 8 G 17 10.00 Fair CLR 67.5 57 69% 29.72 0.0
05 16:55 N 10 G 16 10.00 Fair CLR 68.7 58.3 69% 29.71 0.0
05 16:35 NW 8 10.00 Fair CLR 70.3 59.7 69% 29.71 0.0
05 16:15 NW 8 10.00 Fair CLR 70.9 59.7 68% 29.69 0.0
05 15:55 NW 10 10.00 Fair CLR 72.5 61.2 68% 29.7 0.0
05 15:35 NW 9 G 17 10.00 Fair CLR 73.4 61.9 67% 29.69 0.0
05 15:15 NW 9 10.00 Fair CLR 74.3 61.9 65% 29.68 0.0
05 14:55 NW 8 10.00 Fair CLR 77.9 54.5 44% 79 29.67 0.0
05 14:35 W 10 10.00 Fair CLR 80.1 51.1 37% 80 29.66 0.0
05 14:15 W 9 10.00 Fair CLR 81.5 55 40% 81 29.67 0.0
05 13:55 W 10 10.00 Fair CLR 81.5 58.6 46% 82 29.65 0.0
05 13:35 W 8 10.00 Fair CLR 83.3 63 50% 84 29.65 0.0
05 13:15 SW 14 G 20 10.00 Fair CLR 82 62.6 52% 83 29.66 0.0
05 12:55 SW 8 10.00 Fair CLR 81.5 64.2 82 68.2 56% 83 29.65 0.0
05 12:35 SW 10 10.00 Fair CLR 80.1 64 58% 82 29.65 0.0
05 12:15 SW 8 10.00 Fair CLR 79.3 66 64% 81 29.65 0.0
05 11:55 SW 6 10.00 Fair CLR 78.8 66.7 67% 81 29.65 0.0
05 11:35 S 7 10.00 Fair CLR 76.8 65.3 68% 79 29.64 0.0
05 11:15 SW 9 10.00 Fair CLR 76.5 64.9 68% 78 29.63 0.0
05 10:55 S 10 10.00 Fair CLR 76.5 64.9 68% 78 29.62 0.0
05 10:35 SW 12 G 20 10.00 Fair CLR 75.9 64.8 68% 78 29.61 0.0
05 10:15 S 8 10.00 Fair CLR 74.7 65.5 73% 29.61 0.0
05 09:55 S 10 10.00 Fair CLR 73.8 65.7 76% 29.61 0.0
05 09:35 S 9 10.00 Fair CLR 72.7 65.3 78% 29.61 0.0
05 09:15 S 8 10.00 Fair CLR 70.9 64.9 82% 29.61 0.0
05 08:55 S 8 10.00 Fair CLR 70 64.6 83% 29.62 0.0
05 08:35 S 9 10.00 Fair CLR 69.4 64.4 84% 29.62 0.0
05 08:15 S 9 10.00 Fair CLR 68.9 64 85% 29.61 0.0
05 07:55 S 9 10.00 Fair CLR 68.5 63.9 85% 29.61 0.0
05 07:35 S 12 10.00 Fair CLR 68.5 63.9 85% 29.61 0.0
05 07:15 S 9 10.00 Fair CLR 68.4 63.7 85% 29.6 0.0
05 06:55 S 8 10.00 Fair CLR 68.2 63.5 72.9 68.2 85% 29.59 0.0
05 06:35 S 10 10.00 Fair CLR 68.7 63.5 84% 29.59 0.0
05 06:15 S 9 10.00 Fair CLR 69.1 63.3 82% 29.59 0.0
05 05:55 S 9 10.00 Fair CLR 69.4 63.3 81% 29.59 0.0
05 05:35 S 10 G 16 10.00 Fair CLR 69.8 63.1 80% 29.59 0.0
05 05:15 S 12 G 16 10.00 Fair CLR 70.3 63.1 78% 29.59 0.0
05 04:55 S 10 10.00 Fair CLR 70.7 63.1 77% 29.59 0.0
05 04:35 S 9 10.00 Fair CLR 70.9 63.1 77% 29.59 0.0
05 04:15 S 10 10.00 Fair CLR 71.1 63.1 76% 29.59 0.0
05 03:55 S 8 10.00 Fair CLR 71.6 63.1 75% 29.59 0.0
05 03:35 S 10 G 16 10.00 Fair CLR 71.8 63 74% 29.59 0.0
05 03:15 S 13 G 17 10.00 Fair CLR 72 63 73% 29.59 0.0
05 02:55 S 13 10.00 Fair CLR 72.5 63 72% 29.6 0.0
05 02:35 S 15 G 21 10.00 Fair CLR 72.9 63 71% 29.61 0.0
05 02:15 S 15 G 21 10.00 Fair CLR 72.5 63 72% 29.62 0.0
05 01:55 S 13 G 24 10.00 Fair CLR 72.5 63 72% 29.63 0.0
05 01:35 S 12 G 20 10.00 Fair CLR 72.3 63 73% 29.64 0.0
05 01:15 S 12 G 16 10.00 Fair CLR 72.3 63 73% 29.64 0.0
05 00:55 S 12 G 20 10.00 Fair CLR 72.5 62.8 78.1 72.1 72% 29.64 0.0
05 00:35 S 14 G 20 10.00 Fair CLR 72.7 62.8 71% 29.64 0.0
05 00:15 S 12 G 23 10.00 Fair CLR 73 62.6 70% 29.65 0.0
04 23:55 S 15 G 20 10.00 Fair CLR 72.7 62.6 71% 29.66 0.0
04 23:35 S 13 G 22 10.00 Fair CLR 72.9 62.4 70% 29.65 0.0
04 23:15 S 13 G 21 10.00 Fair CLR 73 62.4 69% 29.66 0.0
04 22:55 S 12 G 22 10.00 Fair CLR 72.9 62.2 69% 29.65 0.0
04 22:35 S 14 G 22 10.00 Fair CLR 72.9 62.2 69% 29.66 0.0
04 22:15 S 12 10.00 Fair CLR 72.9 62.2 69% 29.66 0.0
04 21:55 S 13 10.00 Fair CLR 72.9 62.2 69% 29.66 0.0
04 21:35 S 10 10.00 Fair CLR 73 62.2 69% 29.66 0.0
04 21:15 S 9 10.00 Fair CLR 73.6 62.1 67% 29.66 0.0
04 20:55 S 12 G 17 10.00 Fair CLR 73.9 62.2 67% 29.66 0.0
04 20:35 S 9 10.00 Fair CLR 74.1 62.4 67% 29.65 0.0
04 20:15 S 9 10.00 Fair CLR 75 62.4 65% 77 29.65 0.0
04 19:55 S 10 G 17 10.00 Fair CLR 75.9 62.6 63% 78 29.65 0.0
04 19:35 S 12 10.00 Fair CLR 76.6 62.6 62% 78 29.65 0.0
04 19:15 S 13 G 18 10.00 Fair CLR 77.4 62.8 61% 79 29.65 0.0
04 18:55 S 14 G 20 10.00 Fair CLR 78.1 62.6 82.2 75.4 59% 80 29.66 0.0
04 18:35 S 14 G 17 10.00 Fair CLR 79.2 62.6 57% 81 29.66 0.0
04 18:15 S 15 G 24 10.00 Fair CLR 79.9 62.4 55% 81 29.67 0.0
04 17:55 S 18 G 24 10.00 Fair CLR 80.4 61.9 53% 82 29.68 0.0
04 17:35 S 16 G 25 10.00 Fair CLR 81.1 61.9 52% 82 29.68 0.0
04 17:15 S 16 G 22 10.00 Fair CLR 82 62.4 52% 83 29.68 0.0
04 16:55 S 13 G 22 10.00 Fair CLR 81.7 62.2 52% 83 29.68 0.0
04 16:35 S 10 G 23 10.00 Partly Cloudy SCT045 81.1 61.5 51% 82 29.69 0.0
04 16:15 S 17 G 24 10.00 Fair CLR 80.6 61.3 52% 82 29.71 0.0
04 15:55 S 18 G 28 10.00 Fair CLR 80.2 61 52% 81 29.72 0.0
04 15:35 S 18 10.00 Partly Cloudy SCT045 80.6 61.5 52% 82 29.73 0.0
04 15:15 S 14 G 23 10.00 Fair CLR 79.7 60.4 52% 81 29.74 0.0
04 14:55 S 16 G 28 10.00 Fair CLR 79.2 60.1 52% 80 29.75 0.0
04 14:35 S 21 G 29 10.00 Fair and Breezy CLR 78.4 59.5 52% 80 29.76 0.0
04 14:15 S 15 G 26 10.00 Fair CLR 78.3 59.9 53% 80 29.77 0.0
04 13:55 S 16 G 24 10.00 Fair CLR 78.1 60.1 54% 79 29.78 0.0
04 13:35 S 15 G 23 10.00 Fair CLR 76.3 59 55% 78 29.79 0.0
04 13:15 S 15 G 23 10.00 Fair CLR 76.8 59 54% 79 29.8 0.0
04 12:55 S 17 G 26 10.00 Fair CLR 75.6 57.9 76.1 58.5 54% 78 29.81 0.0
04 12:35 S 15 G 23 10.00 Fair CLR 75 57.7 55% 78 29.82 0.0
04 12:15 S 17 G 25 10.00 Fair CLR 74.7 57.7 56% 29.83 0.0
04 11:55 S 17 G 26 10.00 Fair CLR 74.5 57.6 56% 29.84 0.0
04 11:35 S 16 G 28 10.00 Fair CLR 73.9 57.4 56% 29.85 0.0
04 11:20 S 15 G 23 10.00 Fair CLR 74.1 57.2 56% 29.85 0.0
04 10:55 S 18 G 26 10.00 Fair CLR 72.7 56.8 58% 29.85 0.0
04 10:35 S 17 G 29 10.00 Fair CLR 72 56.5 58% 29.85 0.0
04 10:15 S 14 G 23 10.00 Fair CLR 70.9 56.8 61% 29.86 0.0
04 09:55 S 10 G 21 10.00 Fair CLR 69.6 56.5 63% 29.86 0.0
04 09:35 S 12 G 22 10.00 Fair CLR 67.8 55.4 65% 29.87 0.0
04 09:15 S 13 G 21 10.00 Fair CLR 65.7 54.5 67% 29.87 0.0
04 08:55 S 9 G 20 10.00 Fair CLR 64.4 54 69% 29.87 0.0
04 08:35 S 13 G 17 10.00 Fair CLR 64 53.2 68% 29.87 0.0
04 08:15 S 12 G 20 10.00 Fair CLR 63 52.5 69% 29.87 0.0
04 07:55 S 10 10.00 Fair CLR 61.9 52 70% 29.87 0.0
04 07:35 S 9 10.00 Fair CLR 60.6 51.3 71% 29.87 0.0
04 07:15 S 8 10.00 Fair CLR 59.4 50.4 72% 29.87 0.0
04 06:55 S 7 10.00 Fair CLR 58.6 49.6 63.1 58.3 72% 29.87 0.0
04 06:35 S 5 10.00 Fair CLR 58.6 49.5 72% 29.87 0.0
04 06:15 S 8 10.00 Fair CLR 59 49.1 70% 29.87 0.0
04 05:55 S 8 10.00 Fair CLR 59.4 48.7 68% 29.88 0.0
04 05:35 S 7 10.00 Fair CLR 59.7 48.6 67% 29.88 0.0
04 05:15 S 9 10.00 Fair CLR 60.1 48.4 65% 29.88 0.0
04 04:55 S 9 10.00 Fair CLR 59.9 48.4 66% 29.88 0.0
04 04:35 S 7 10.00 Fair CLR 59.9 48.4 66% 29.88 0.0
04 04:15 S 7 10.00 Fair CLR 59.9 48.2 65% 29.88 0.0
04 03:55 S 8 10.00 Fair CLR 60.4 48.2 64% 29.89 0.0
04 03:35 S 8 10.00 Fair CLR 61 48 63% 29.89 0.0
04 03:15 S 8 10.00 Fair CLR 61.3 47.8 61% 29.89 0.0
04 02:55 S 8 10.00 Fair CLR 61.5 47.7 61% 29.9 0.0
04 02:35 S 7 10.00 Fair CLR 61.7 47.7 60% 29.9 0.0
04 02:15 S 7 10.00 Fair CLR 62.2 47.5 59% 29.91 0.0
04 01:55 S 9 10.00 Fair CLR 62.6 47.3 58% 29.93 0.0
04 01:15 S 8 10.00 Fair CLR 62.6 47.1 57% 29.94 0.0
04 00:55 S 7 10.00 Fair CLR 63 46.9 78.1 62.8 56% 29.95 0.0
04 00:40 S 8 10.00 Fair CLR 63 46.9 56% 29.95 0.0
04 00:15 S 8 10.00 Fair CLR 63.3 46.9 55% 29.95 0.0
03 23:55 S 7 10.00 Fair CLR 63.7 46.8 54% 29.96 0.0
03 23:35 S 7 10.00 Fair CLR 64.4 46.6 53% 29.96 0.0
03 23:15 S 8 10.00 Fair CLR 65.1 46.4 51% 29.97 0.0
03 22:55 S 8 10.00 Fair CLR 65.8 46.2 49% 29.97 0.0
03 22:35 S 7 10.00 Fair CLR 66.9 46.2 48% 29.97 0.0
03 22:15 S 8 10.00 Fair CLR 67.5 45.9 46% 29.97 0.0
03 21:55 S 7 10.00 Fair CLR 67.8 45.7 45% 29.96 0.0
03 21:35 S 8 10.00 Fair CLR 67.8 45.5 45% 29.96 0.0
03 21:15 S 6 10.00 Fair CLR 67.5 45.5 45% 29.96 0.0
03 20:55 S 6 10.00 Fair CLR 67.6 45.1 44% 29.96 0.0
03 20:35 S 5 10.00 Fair CLR 69.4 45 42% 29.96 0.0
03 20:15 S 5 10.00 Fair CLR 71.6 44.6 38% 29.95 0.0
03 19:55 S 6 10.00 Fair CLR 73.4 44.4 36% 29.95 0.0
03 19:35 S 6 10.00 Fair CLR 75.6 44.1 33% 77 29.95 0.0
03 19:15 S 8 10.00 Fair CLR 77.2 43.2 30% 78 29.95 0.0
03 18:55 S 7 10.00 Fair CLR 78.1 44.2 82.8 78.1 30% 78 29.96 0.0
03 18:35 S 10 10.00 Fair CLR 79.2 45.5 31% 79 29.96 0.0
03 18:15 S 9 G 17 10.00 Fair CLR 79.2 45.3 30% 79 29.97 0.0
03 17:55 SW 15 10.00 Fair CLR 79.7 44.4 29% 79 29.97 0.0
03 17:35 SW 8 10.00 Partly Cloudy SCT085 80.6 44.8 28% 79 29.97 0.0
03 17:15 S 13 G 20 10.00 Partly Cloudy SCT085 80.6 45.7 29% 80 29.98 0.0
03 16:55 SW 9 10.00 Partly Cloudy SCT085 81.1 45.7 29% 80 29.98 0.0
03 16:35 S 13 10.00 Partly Cloudy SCT085 80.8 46 30% 80 29.99 0.0
03 16:15 SW 12 G 18 10.00 Fair CLR 81.5 45.9 29% 80 29.99 0.0
03 15:55 SW 12 G 17 10.00 Fair CLR 81.5 46.8 30% 80 30.01 0.0
03 15:35 SW 12 G 17 10.00 Fair CLR 81.3 45.5 28% 80 30.02 0.0
03 15:15 SW 8 G 20 10.00 Partly Cloudy SCT080 81.5 45.1 28% 80 30.03 0.0
03 14:55 SW 8 7.00 Partly Cloudy SCT080 81.5 48.6 32% 80 30.03 0.0
03 14:35 W 10 10.00 Partly Cloudy SCT080 80.6 47.7 32% 80 30.04 0.0
03 14:15 W 13 G 18 10.00 Partly Cloudy SCT080 81.3 47.1 30% 80 30.05 0.0
03 13:55 SW 9 G 18 10.00 Fair CLR 80.8 50.9 35% 80 30.06 0.0
03 13:35 SW 13 G 17 10.00 Fair CLR 80.1 51.8 37% 80 30.07 0.0
03 13:15 SW 10 G 20 10.00 Fair CLR 79.3 52.9 40% 79 30.08 0.0
03 12:55 W 10 G 18 10.00 Fair CLR 79.2 51.4 79.9 49.1 38% 79 30.09 0.0
03 12:35 SW 10 G 18 10.00 Fair CLR 78.6 52.7 41% 79 30.1 0.0
03 12:15 SW 8 10.00 Fair CLR 77.9 53.6 43% 79 30.1 0.0
03 11:55 SW 10 G 18 10.00 Fair CLR 76.8 52.5 43% 78 30.12 0.0
03 11:35 SW 9 10.00 Fair CLR 75.6 51.8 44% 78 30.12 0.0
03 11:15 W 12 G 18 10.00 Fair CLR 74.8 50.2 42% 30.13 0.0
03 10:55 W 13 G 21 10.00 Fair CLR 74.1 49.3 42% 30.13 0.0
03 10:35 SW 12 G 18 10.00 Fair CLR 72.7 50.5 46% 30.13 0.0
03 10:15 SW 13 10.00 Fair CLR 70.9 51.4 50% 30.13 0.0
03 09:55 SW 10 10.00 Fair CLR 68.9 51.8 55% 30.13 0.0
03 09:40 SW 5 10.00 Fair CLR 67.3 52 58% 30.13 0.0
03 09:15 SW 6 10.00 Fair CLR 64.4 52 64% 30.12 0.0
03 08:55 SW 7 10.00 Fair CLR 62.1 50.9 67% 30.12 0.0
03 08:35 S 5 10.00 Fair CLR 59.5 50.7 73% 30.12 0.0
03 08:15 Calm 10.00 Fair CLR 57 52.3 84% 30.12 0.0
03 07:55 Calm 10.00 Fair CLR 54.3 50.5 87% 30.12 0.0
Date Time (cdt) Wind (mph) Vis. (mi.) Weather Sky Cond. Air Dwpt Max. Min. Relative Humidity Wind Chill (°F) Heat Index (°F) altimeter (in) sea level (mb) 1 hr 3 hr 6 hr
6 hour
Temperature (ºF) Pressure Precipitation (in)